Time;durP1;ratioP1;P1;durP2;ratioP2;P2;SDS_P1;SDS_P2;PMS_P1;PMS_P2;Temp;Humidity;BMP_temperature;BMP_pressure;BME280_temperature;BME280_humidity;BME280_pressure;Samples;Min_cycle;Max_cycle;Signal;HPM_P1;HPM_P2
2022/03/19 00:00:45;;;;;;;9.10;5.40;;;;;;;;;;5093649;28;20449;-71
2022/03/19 00:03:12;;;;;;;8.47;5.47;;;;;;;;;;5088644;28;20468;-70
2022/03/19 00:05:38;;;;;;;9.00;5.53;;;;;;;;;;5091310;28;20853;-73
2022/03/19 00:08:04;;;;;;;8.47;5.57;;;;;;;;;;5087283;28;20426;-73
2022/03/19 00:10:31;;;;;;;8.23;5.43;;;;;;;;;;5082916;28;20433;-75
2022/03/19 00:12:58;;;;;;;10.40;5.70;;;;;;;;;;5092244;28;20430;-70
2022/03/19 00:15:25;;;;;;;7.03;5.10;;;;;;;;;;5091417;28;20456;-71
2022/03/19 00:17:54;;;;;;;12.23;6.13;;;;;;;;;;5085699;28;20426;-71
2022/03/19 00:20:20;;;;;;;13.07;6.70;;;;;;;;;;5090480;28;20426;-74
2022/03/19 00:22:46;;;;;;;9.20;6.43;;;;;;;;;;5093719;28;20429;-69
2022/03/19 00:25:12;;;;;;;12.20;6.13;;;;;;;;;;5100106;28;20961;-73
2022/03/19 00:27:42;;;;;;;9.20;6.20;;;;;;;;;;5088525;28;20429;-72
2022/03/19 00:30:09;;;;;;;8.97;6.03;;;;;;;;;;5087540;28;20441;-71
2022/03/19 00:32:35;;;;;;;8.57;5.70;;;;;;;;;;5093442;28;20429;-70
2022/03/19 00:35:02;;;;;;;14.90;7.83;;;;;;;;;;5092012;28;20433;-71
2022/03/19 00:37:28;;;;;;;12.37;5.97;;;;;;;;;;5092894;28;20792;-70
2022/03/19 00:39:54;;;;;;;8.50;6.10;;;;;;;;;;5087356;28;20407;-72
2022/03/19 00:42:20;;;;;;;8.57;6.00;;;;;;;;;;5093854;28;20499;-73
2022/03/19 00:44:47;;;;;;;11.30;6.63;;;;;;;;;;5093734;28;20417;-71
2022/03/19 00:47:13;;;;;;;10.30;6.30;;;;;;;;;;5093861;28;20443;-73
2022/03/19 00:49:39;;;;;;;10.40;6.43;;;;;;;;;;5093186;28;20402;-71
2022/03/19 00:52:05;;;;;;;9.73;5.27;;;;;;;;;;5093159;28;20794;-73
2022/03/19 00:54:31;;;;;;;13.17;6.90;;;;;;;;;;5092922;28;20430;-73
2022/03/19 00:56:57;;;;;;;11.17;7.10;;;;;;;;;;5092953;28;20430;-74
2022/03/19 00:59:23;;;;;;;8.33;5.60;;;;;;;;;;5091076;28;20460;-73
2022/03/19 01:01:49;;;;;;;12.60;6.20;;;;;;;;;;5089148;28;20519;-74
2022/03/19 01:04:16;;;;;;;8.60;5.60;;;;;;;;;;5076244;28;20415;-72
2022/03/19 01:06:42;;;;;;;12.60;6.77;;;;;;;;;;5087822;28;20465;-71
2022/03/19 01:09:08;;;;;;;10.53;6.73;;;;;;;;;;5089340;28;20432;-69
2022/03/19 01:11:34;;;;;;;10.20;6.40;;;;;;;;;;5093217;28;20991;-73
2022/03/19 01:14:00;;;;;;;10.03;6.20;;;;;;;;;;5093199;28;20406;-73
2022/03/19 01:16:26;;;;;;;13.43;6.23;;;;;;;;;;5089980;28;20460;-73
2022/03/19 01:18:53;;;;;;;16.57;6.20;;;;;;;;;;5089586;28;20779;-71
2022/03/19 01:21:19;;;;;;;10.30;6.40;;;;;;;;;;5089726;28;20431;-70
2022/03/19 01:23:45;;;;;;;10.40;6.43;;;;;;;;;;5089761;28;20407;-72
2022/03/19 01:26:11;;;;;;;14.00;6.07;;;;;;;;;;5091748;28;20488;-70
2022/03/19 01:28:38;;;;;;;10.70;6.13;;;;;;;;;;5092300;28;20425;-71
2022/03/19 01:31:04;;;;;;;11.20;7.47;;;;;;;;;;5086020;28;20490;-71
2022/03/19 01:33:30;;;;;;;10.27;6.63;;;;;;;;;;5092020;28;20433;-72
2022/03/19 01:35:56;;;;;;;9.30;6.63;;;;;;;;;;5089736;28;20464;-72
2022/03/19 01:38:22;;;;;;;12.57;6.80;;;;;;;;;;5090536;28;20818;-69
2022/03/19 01:40:48;;;;;;;12.03;6.73;;;;;;;;;;5087063;28;20779;-74
2022/03/19 01:43:14;;;;;;;12.87;6.87;;;;;;;;;;5088694;28;20544;-74
2022/03/19 01:45:40;;;;;;;10.37;6.43;;;;;;;;;;5092079;28;20476;-72
2022/03/19 01:48:07;;;;;;;11.53;6.70;;;;;;;;;;5092197;28;20422;-72
2022/03/19 01:50:33;;;;;;;11.03;6.87;;;;;;;;;;5091733;28;20445;-70
2022/03/19 01:52:59;;;;;;;9.60;6.30;;;;;;;;;;5087367;28;20454;-70
2022/03/19 01:55:26;;;;;;;11.47;6.90;;;;;;;;;;5084605;28;20430;-72
2022/03/19 01:57:52;;;;;;;9.90;7.20;;;;;;;;;;5092485;28;20414;-71
2022/03/19 02:00:22;;;;;;;10.00;6.40;;;;;;;;;;5091976;28;20898;-70
2022/03/19 02:02:49;;;;;;;11.00;6.40;;;;;;;;;;5091592;28;20474;-72
2022/03/19 02:05:16;;;;;;;12.23;7.30;;;;;;;;;;5092206;28;20465;-71
2022/03/19 02:07:42;;;;;;;11.07;6.83;;;;;;;;;;5092512;28;20410;-71
2022/03/19 02:10:09;;;;;;;14.43;7.47;;;;;;;;;;5092060;28;20413;-74
2022/03/19 02:12:35;;;;;;;10.67;6.73;;;;;;;;;;5090151;28;20414;-72
2022/03/19 02:15:02;;;;;;;11.30;7.70;;;;;;;;;;5078952;28;20424;-73
2022/03/19 02:17:28;;;;;;;12.10;7.20;;;;;;;;;;5085064;28;20471;-72
2022/03/19 02:19:55;;;;;;;10.53;6.47;;;;;;;;;;5077524;28;20403;-72
2022/03/19 02:22:22;;;;;;;9.90;6.30;;;;;;;;;;5071856;28;20444;-72
2022/03/19 02:27:34;;;;;;;11.67;7.10;;;;;;;;;;5085264;28;21211;-71
2022/03/19 02:30:00;;;;;;;10.53;6.90;;;;;;;;;;5091005;28;20437;-74
2022/03/19 02:32:27;;;;;;;13.97;6.53;;;;;;;;;;5086205;28;20446;-71
2022/03/19 02:34:53;;;;;;;11.53;6.97;;;;;;;;;;5090208;28;20453;-72
2022/03/19 02:37:19;;;;;;;10.77;6.80;;;;;;;;;;5090867;28;20433;-70
2022/03/19 02:39:45;;;;;;;12.87;6.90;;;;;;;;;;5087182;28;20440;-72
2022/03/19 02:42:11;;;;;;;10.50;6.80;;;;;;;;;;5090835;28;20437;-69
2022/03/19 02:44:37;;;;;;;10.40;7.07;;;;;;;;;;5086935;28;20925;-73
2022/03/19 02:47:05;;;;;;;9.80;6.67;;;;;;;;;;5085456;28;20462;-71
2022/03/19 02:49:31;;;;;;;12.57;7.50;;;;;;;;;;5082535;28;20512;-74
2022/03/19 02:51:57;;;;;;;10.73;6.87;;;;;;;;;;5080483;28;20946;-72
2022/03/19 02:54:24;;;;;;;10.77;6.73;;;;;;;;;;5071554;28;20410;-72
2022/03/19 02:56:51;;;;;;;10.20;7.00;;;;;;;;;;5080905;28;20430;-75
2022/03/19 02:59:21;;;;;;;12.13;7.67;;;;;;;;;;5082799;28;20437;-73
2022/03/19 03:01:48;;;;;;;13.07;7.27;;;;;;;;;;5090095;28;20465;-73
2022/03/19 03:04:14;;;;;;;12.50;7.63;;;;;;;;;;5084885;28;20937;-72
2022/03/19 03:06:41;;;;;;;20.60;7.73;;;;;;;;;;5082884;28;20972;-72
2022/03/19 03:09:08;;;;;;;10.53;7.10;;;;;;;;;;5086452;28;20522;-72
2022/03/19 03:11:36;;;;;;;12.80;6.87;;;;;;;;;;5077788;28;20445;-74
2022/03/19 03:14:02;;;;;;;11.20;7.03;;;;;;;;;;5087521;28;20486;-71
2022/03/19 03:16:28;;;;;;;12.13;7.30;;;;;;;;;;5089306;28;20816;-70
2022/03/19 03:18:59;;;;;;;13.37;7.20;;;;;;;;;;5094795;28;20413;-71
2022/03/19 03:21:27;;;;;;;12.10;6.90;;;;;;;;;;5081081;28;20983;-71
2022/03/19 03:23:54;;;;;;;10.50;6.70;;;;;;;;;;5094207;28;20432;-72
2022/03/19 03:26:20;;;;;;;11.87;7.37;;;;;;;;;;5094590;28;20461;-73
2022/03/19 03:28:46;;;;;;;9.77;6.90;;;;;;;;;;5094553;28;20937;-72
2022/03/19 03:31:12;;;;;;;9.47;6.17;;;;;;;;;;5093500;28;20433;-70
2022/03/19 03:33:38;;;;;;;9.77;7.23;;;;;;;;;;5095061;28;20409;-70
2022/03/19 03:36:04;;;;;;;10.97;6.87;;;;;;;;;;5092394;28;20763;-70
2022/03/19 03:38:30;;;;;;;12.20;6.97;;;;;;;;;;5092557;28;20429;-71
2022/03/19 03:40:57;;;;;;;12.30;7.30;;;;;;;;;;5089047;28;20430;-70
2022/03/19 03:43:23;;;;;;;10.07;7.30;;;;;;;;;;5091778;28;20422;-72
2022/03/19 03:45:50;;;;;;;11.10;7.27;;;;;;;;;;5089691;28;20518;-70
2022/03/19 03:48:16;;;;;;;11.00;6.40;;;;;;;;;;5092815;28;20457;-70
2022/03/19 03:50:42;;;;;;;13.40;7.60;;;;;;;;;;5074094;28;20427;-69
2022/03/19 03:53:08;;;;;;;9.53;7.37;;;;;;;;;;5086959;28;20453;-71
2022/03/19 03:55:36;;;;;;;13.67;6.97;;;;;;;;;;5094585;28;20414;-70
2022/03/19 03:58:03;;;;;;;12.20;7.23;;;;;;;;;;5093948;28;20431;-72
2022/03/19 04:00:30;;;;;;;12.60;6.90;;;;;;;;;;5094376;28;20425;-70
2022/03/19 04:02:56;;;;;;;13.17;6.60;;;;;;;;;;5094610;28;20996;-70
2022/03/19 04:05:22;;;;;;;11.90;6.90;;;;;;;;;;5094081;28;20812;-72
2022/03/19 04:07:48;;;;;;;10.67;6.67;;;;;;;;;;5092632;28;20433;-73
2022/03/19 04:10:14;;;;;;;11.33;7.00;;;;;;;;;;5084730;28;20426;-69
2022/03/19 04:12:40;;;;;;;9.80;6.03;;;;;;;;;;5090493;28;20433;-72
2022/03/19 04:15:07;;;;;;;11.53;7.20;;;;;;;;;;5092319;28;20438;-71
2022/03/19 04:17:33;;;;;;;9.87;6.40;;;;;;;;;;5088408;28;20479;-71
2022/03/19 04:19:59;;;;;;;10.50;7.87;;;;;;;;;;5087282;28;20938;-70
2022/03/19 04:22:33;;;;;;;11.67;7.27;;;;;;;;;;5088091;28;20449;-74
2022/03/19 04:24:59;;;;;;;12.10;6.97;;;;;;;;;;5086169;28;20427;-70
2022/03/19 04:27:25;;;;;;;10.60;6.33;;;;;;;;;;5090199;28;20462;-75
2022/03/19 04:29:51;;;;;;;9.97;6.77;;;;;;;;;;5088369;28;20417;-72
2022/03/19 04:32:18;;;;;;;15.43;6.90;;;;;;;;;;5086092;28;20447;-74
2022/03/19 04:34:44;;;;;;;9.57;6.50;;;;;;;;;;5093872;28;20455;-73
2022/03/19 04:37:10;;;;;;;8.50;6.03;;;;;;;;;;5085345;28;20492;-70
2022/03/19 04:39:36;;;;;;;12.63;7.33;;;;;;;;;;5083957;28;20429;-71
2022/03/19 04:42:02;;;;;;;11.00;6.80;;;;;;;;;;5093345;28;20445;-70
2022/03/19 04:44:28;;;;;;;10.03;6.30;;;;;;;;;;5084480;28;20426;-70
2022/03/19 04:46:54;;;;;;;11.63;7.73;;;;;;;;;;5091577;28;20493;-74
2022/03/19 04:49:20;;;;;;;11.40;7.60;;;;;;;;;;5090108;28;20487;-73
2022/03/19 04:51:46;;;;;;;19.27;7.03;;;;;;;;;;5089750;28;20442;-73
2022/03/19 04:54:12;;;;;;;11.40;6.67;;;;;;;;;;5094540;28;20418;-70
2022/03/19 04:56:38;;;;;;;10.17;6.93;;;;;;;;;;5093178;28;20455;-71
2022/03/19 04:59:04;;;;;;;8.40;6.00;;;;;;;;;;5085807;28;20496;-71
2022/03/19 05:01:31;;;;;;;9.17;5.70;;;;;;;;;;5086093;28;20501;-70
2022/03/19 05:03:57;;;;;;;10.37;7.17;;;;;;;;;;5092467;28;20430;-75
2022/03/19 05:06:24;;;;;;;12.70;7.63;;;;;;;;;;5093402;28;20453;-73
2022/03/19 05:11:12;;;;;;;11.60;7.23;;;;;;;;;;5093226;28;20528;-73
2022/03/19 05:11:36;;;;;;;14.43;7.20;;;;;;;;;;5094583;28;20424;-70
2022/03/19 05:14:04;;;;;;;13.77;6.67;;;;;;;;;;5093507;28;20409;-71
2022/03/19 05:16:30;;;;;;;14.10;7.10;;;;;;;;;;5093413;28;20406;-74
2022/03/19 05:18:56;;;;;;;12.97;6.90;;;;;;;;;;5091028;28;20560;-72
2022/03/19 05:21:22;;;;;;;10.97;7.17;;;;;;;;;;5085862;28;20419;-69
2022/03/19 05:23:48;;;;;;;11.30;6.60;;;;;;;;;;5091828;28;20425;-71
2022/03/19 05:26:14;;;;;;;14.33;6.77;;;;;;;;;;5091126;28;20450;-73
2022/03/19 05:28:40;;;;;;;11.30;7.13;;;;;;;;;;5091829;28;20430;-69
2022/03/19 05:31:08;;;;;;;10.20;6.43;;;;;;;;;;5091556;28;20441;-72
2022/03/19 05:36:19;;;;;;;11.70;6.63;;;;;;;;;;5093668;28;20483;-71
2022/03/19 05:38:45;;;;;;;15.90;6.13;;;;;;;;;;5083445;28;20987;-72
2022/03/19 05:41:11;;;;;;;12.10;5.80;;;;;;;;;;5091358;28;20442;-70
2022/03/19 05:43:37;;;;;;;11.77;6.37;;;;;;;;;;5083629;28;20647;-69
2022/03/19 05:46:04;;;;;;;14.33;6.60;;;;;;;;;;5092035;28;20506;-71
2022/03/19 05:48:30;;;;;;;10.50;6.50;;;;;;;;;;5084716;28;20422;-71
2022/03/19 05:50:56;;;;;;;16.67;6.10;;;;;;;;;;5086093;28;20504;-70
2022/03/19 05:53:22;;;;;;;19.37;7.37;;;;;;;;;;5088742;28;20429;-71
2022/03/19 05:55:48;;;;;;;13.87;6.20;;;;;;;;;;5092405;28;20414;-72
2022/03/19 05:58:14;;;;;;;17.80;6.47;;;;;;;;;;5092708;28;20405;-69
2022/03/19 06:00:40;;;;;;;9.37;6.43;;;;;;;;;;5091914;28;20460;-72
2022/03/19 06:03:06;;;;;;;10.33;6.30;;;;;;;;;;5092507;28;20433;-70
2022/03/19 06:05:32;;;;;;;9.27;6.13;;;;;;;;;;5092694;28;20457;-70
2022/03/19 06:07:59;;;;;;;10.73;6.00;;;;;;;;;;5077420;28;20415;-73
2022/03/19 06:10:25;;;;;;;10.87;6.07;;;;;;;;;;5072112;28;20405;-71
2022/03/19 06:12:53;;;;;;;13.90;5.80;;;;;;;;;;5085350;28;20563;-72
2022/03/19 06:15:20;;;;;;;8.30;5.47;;;;;;;;;;5089952;28;20452;-71
2022/03/19 06:17:46;;;;;;;9.00;5.90;;;;;;;;;;5092272;28;20505;-72
2022/03/19 06:20:12;;;;;;;10.80;6.67;;;;;;;;;;5086783;28;20419;-72
2022/03/19 06:22:41;;;;;;;12.53;6.43;;;;;;;;;;5089662;28;20422;-70
2022/03/19 06:25:07;;;;;;;9.83;5.80;;;;;;;;;;5081045;28;20423;-69
2022/03/19 06:27:33;;;;;;;10.23;6.13;;;;;;;;;;5072043;28;20415;-70
2022/03/19 06:29:59;;;;;;;11.63;6.60;;;;;;;;;;5071567;28;20403;-70
2022/03/19 06:32:25;;;;;;;13.80;6.30;;;;;;;;;;5084038;28;20425;-70
2022/03/19 06:34:51;;;;;;;11.27;7.47;;;;;;;;;;5091900;28;20414;-70
2022/03/19 06:37:21;;;;;;;14.23;7.60;;;;;;;;;;5091033;28;20440;-69
2022/03/19 06:39:54;;;;;;;12.07;7.23;;;;;;;;;;5074680;28;21110;-73
2022/03/19 06:42:22;;;;;;;12.03;6.63;;;;;;;;;;5078153;28;20446;-69
2022/03/19 06:44:49;;;;;;;15.20;8.37;;;;;;;;;;5092843;28;20758;-70
2022/03/19 06:47:15;;;;;;;19.13;9.40;;;;;;;;;;5089672;28;20457;-76
2022/03/19 06:49:41;;;;;;;14.63;8.37;;;;;;;;;;5088756;28;20429;-71
2022/03/19 06:52:08;;;;;;;16.50;8.80;;;;;;;;;;5089617;28;20425;-72
2022/03/19 06:54:34;;;;;;;18.80;8.83;;;;;;;;;;5089647;28;20417;-72
2022/03/19 06:57:00;;;;;;;14.40;8.90;;;;;;;;;;5090040;28;20479;-76
2022/03/19 06:59:26;;;;;;;14.03;8.60;;;;;;;;;;5089574;28;20417;-69
2022/03/19 07:01:52;;;;;;;14.63;7.70;;;;;;;;;;5090895;28;20445;-70
2022/03/19 07:04:18;;;;;;;12.90;7.80;;;;;;;;;;5091576;28;20417;-70
2022/03/19 07:06:44;;;;;;;14.00;7.53;;;;;;;;;;5091333;28;20882;-68
2022/03/19 07:09:10;;;;;;;11.57;7.17;;;;;;;;;;5090948;28;20794;-75
2022/03/19 07:11:36;;;;;;;17.63;7.77;;;;;;;;;;5091469;28;20775;-72
2022/03/19 07:14:03;;;;;;;15.70;8.03;;;;;;;;;;5091627;28;20414;-70
2022/03/19 07:16:29;;;;;;;13.80;8.50;;;;;;;;;;5091581;28;20413;-70
2022/03/19 07:18:56;;;;;;;12.30;7.60;;;;;;;;;;5091191;28;20424;-69
2022/03/19 07:21:22;;;;;;;16.80;7.20;;;;;;;;;;5091459;28;20430;-70
2022/03/19 07:23:48;;;;;;;19.20;7.50;;;;;;;;;;5091528;28;20424;-69
2022/03/19 07:26:14;;;;;;;13.33;7.53;;;;;;;;;;5091396;28;20461;-70
2022/03/19 07:28:41;;;;;;;11.10;6.73;;;;;;;;;;5091161;28;20421;-70
2022/03/19 07:31:08;;;;;;;11.37;7.03;;;;;;;;;;5091346;28;20418;-70
2022/03/19 07:33:34;;;;;;;15.80;7.43;;;;;;;;;;5091543;28;20409;-73
2022/03/19 07:36:04;;;;;;;13.10;5.97;;;;;;;;;;5085645;28;20413;-69
2022/03/19 07:38:31;;;;;;;13.33;5.70;;;;;;;;;;5088772;28;20410;-72
2022/03/19 07:43:43;;;;;;;12.93;7.07;;;;;;;;;;5091112;28;20437;-72
2022/03/19 07:46:09;;;;;;;8.63;6.50;;;;;;;;;;5088454;28;20461;-69
2022/03/19 07:48:35;;;;;;;14.27;7.57;;;;;;;;;;5088462;28;20491;-73
2022/03/19 07:51:01;;;;;;;13.10;6.63;;;;;;;;;;5088760;28;20849;-72
2022/03/19 07:53:27;;;;;;;11.37;7.57;;;;;;;;;;5088843;28;20860;-71
2022/03/19 07:55:54;;;;;;;10.00;7.23;;;;;;;;;;5088938;28;20418;-71
2022/03/19 07:58:21;;;;;;;8.97;6.53;;;;;;;;;;5087566;28;20417;-71
2022/03/19 08:00:47;;;;;;;12.70;7.30;;;;;;;;;;5090241;28;20468;-73
2022/03/19 08:03:13;;;;;;;10.83;7.00;;;;;;;;;;5092796;28;20508;-71
2022/03/19 08:05:42;;;;;;;16.30;7.37;;;;;;;;;;5093098;28;20482;-70
2022/03/19 08:08:08;;;;;;;18.90;8.47;;;;;;;;;;5096071;28;20425;-72
2022/03/19 08:10:36;;;;;;;20.10;7.60;;;;;;;;;;5094273;28;20430;-74
2022/03/19 08:13:06;;;;;;;14.23;6.60;;;;;;;;;;5094659;28;20467;-68
2022/03/19 08:15:32;;;;;;;26.13;7.93;;;;;;;;;;5094601;28;20497;-72
2022/03/19 08:18:02;;;;;;;13.43;7.37;;;;;;;;;;5094615;28;20409;-70
2022/03/19 08:20:28;;;;;;;9.03;5.93;;;;;;;;;;5093918;28;20410;-72
2022/03/19 08:22:55;;;;;;;15.23;7.57;;;;;;;;;;5094474;28;20840;-70
2022/03/19 08:25:21;;;;;;;19.73;7.63;;;;;;;;;;5094321;28;20460;-73
2022/03/19 08:27:49;;;;;;;13.77;7.00;;;;;;;;;;5094237;28;20414;-73
2022/03/19 08:30:15;;;;;;;11.57;6.80;;;;;;;;;;5093768;28;20410;-70
2022/03/19 08:32:41;;;;;;;11.60;6.67;;;;;;;;;;5094173;28;20421;-69
2022/03/19 08:35:08;;;;;;;10.53;6.93;;;;;;;;;;5094134;28;20398;-71
2022/03/19 08:37:34;;;;;;;12.60;7.40;;;;;;;;;;5094104;28;20459;-74
2022/03/19 08:40:15;;;;;;;12.93;6.40;;;;;;;;;;5093732;28;20471;-72
2022/03/19 08:42:41;;;;;;;10.30;6.57;;;;;;;;;;5094153;28;20471;-75
2022/03/19 08:45:08;;;;;;;14.87;7.70;;;;;;;;;;5093967;28;20414;-74
2022/03/19 08:47:34;;;;;;;12.40;7.70;;;;;;;;;;5093536;28;20402;-70
2022/03/19 08:50:00;;;;;;;11.03;6.47;;;;;;;;;;5093548;28;20414;-70
2022/03/19 08:52:26;;;;;;;13.27;6.97;;;;;;;;;;5093701;28;20465;-73
2022/03/19 08:54:53;;;;;;;9.40;6.20;;;;;;;;;;5093824;28;20409;-68
2022/03/19 08:57:20;;;;;;;11.53;7.23;;;;;;;;;;5093761;28;20417;-72
2022/03/19 08:59:46;;;;;;;10.03;6.50;;;;;;;;;;5093250;28;20916;-71
2022/03/19 09:02:12;;;;;;;10.97;6.80;;;;;;;;;;5093433;28;20445;-69
2022/03/19 09:04:38;;;;;;;9.87;5.70;;;;;;;;;;5093702;28;20406;-72
2022/03/19 09:07:04;;;;;;;7.97;5.60;;;;;;;;;;5093465;28;20454;-71
2022/03/19 09:09:30;;;;;;;9.83;5.63;;;;;;;;;;5093070;28;20777;-72
2022/03/19 09:11:56;;;;;;;9.20;5.73;;;;;;;;;;5092943;28;20843;-69
2022/03/19 09:14:24;;;;;;;8.60;5.60;;;;;;;;;;5093434;28;20766;-71
2022/03/19 09:16:50;;;;;;;11.50;5.50;;;;;;;;;;5093301;28;20497;-72
2022/03/19 09:19:16;;;;;;;7.17;5.03;;;;;;;;;;5094280;28;20821;-71
2022/03/19 09:21:42;;;;;;;8.40;4.83;;;;;;;;;;5093089;28;20491;-70
2022/03/19 09:24:10;;;;;;;5.80;4.17;;;;;;;;;;5093248;28;20406;-70
2022/03/19 09:26:36;;;;;;;7.20;5.50;;;;;;;;;;5093303;28;20603;-70
2022/03/19 09:29:02;;;;;;;8.83;6.00;;;;;;;;;;5092767;28;20410;-74
2022/03/19 09:31:28;;;;;;;8.90;5.23;;;;;;;;;;5093030;28;20429;-69
2022/03/19 09:33:54;;;;;;;7.07;5.00;;;;;;;;;;5093003;28;20778;-72
2022/03/19 09:36:20;;;;;;;6.93;4.93;;;;;;;;;;5093068;28;20414;-71
2022/03/19 09:38:46;;;;;;;7.40;5.17;;;;;;;;;;5092675;28;20455;-73
2022/03/19 09:41:12;;;;;;;6.63;4.67;;;;;;;;;;5092762;28;20422;-73
2022/03/19 09:43:38;;;;;;;7.03;5.13;;;;;;;;;;5092859;28;20410;-70
2022/03/19 09:46:05;;;;;;;8.00;4.20;;;;;;;;;;5093854;28;20821;-73
2022/03/19 09:48:31;;;;;;;6.00;4.87;;;;;;;;;;5092369;28;20414;-69
2022/03/19 09:50:58;;;;;;;5.67;4.53;;;;;;;;;;5093825;28;20905;-71
2022/03/19 09:53:25;;;;;;;6.20;4.60;;;;;;;;;;5092497;28;20402;-72
2022/03/19 09:55:53;;;;;;;6.80;4.83;;;;;;;;;;5092575;28;20924;-74
2022/03/19 09:58:19;;;;;;;6.10;4.50;;;;;;;;;;5092783;28;20413;-72
2022/03/19 10:00:45;;;;;;;6.80;5.17;;;;;;;;;;5092067;28;20472;-70
2022/03/19 10:03:12;;;;;;;7.97;5.10;;;;;;;;;;5092397;28;20523;-69
2022/03/19 10:08:43;;;;;;;7.20;4.70;;;;;;;;;;5093975;28;20393;-70
2022/03/19 10:11:09;;;;;;;5.33;4.20;;;;;;;;;;5092247;28;20434;-72
2022/03/19 10:13:45;;;;;;;5.97;4.20;;;;;;;;;;5092404;28;20829;-72
2022/03/19 10:16:23;;;;;;;6.53;4.97;;;;;;;;;;5092399;28;20459;-69
2022/03/19 10:18:56;;;;;;;5.67;4.07;;;;;;;;;;5091913;28;20413;-67
2022/03/19 10:21:22;;;;;;;5.30;4.30;;;;;;;;;;5092147;28;20474;-71
2022/03/19 10:23:49;;;;;;;5.80;3.80;;;;;;;;;;5091415;28;20897;-69
2022/03/19 10:26:31;;;;;;;5.70;3.70;;;;;;;;;;5092080;28;20453;-68
2022/03/19 10:28:58;;;;;;;5.80;3.70;;;;;;;;;;5091669;28;20402;-70
2022/03/19 10:31:31;;;;;;;5.97;3.83;;;;;;;;;;5092031;28;20513;-69
2022/03/19 10:33:57;;;;;;;4.90;4.03;;;;;;;;;;5092052;28;20805;-69
2022/03/19 10:36:29;;;;;;;5.00;3.93;;;;;;;;;;5092008;28;20409;-69
2022/03/19 10:38:56;;;;;;;4.50;3.73;;;;;;;;;;5091682;28;20405;-71
2022/03/19 10:41:22;;;;;;;6.07;4.10;;;;;;;;;;5091860;28;20425;-68
2022/03/19 10:43:48;;;;;;;4.87;3.60;;;;;;;;;;5091914;28;20409;-70
2022/03/19 10:46:20;;;;;;;6.20;3.60;;;;;;;;;;5091772;28;20457;-68
2022/03/19 10:48:52;;;;;;;4.40;3.47;;;;;;;;;;5091587;28;20429;-71
2022/03/19 10:51:20;;;;;;;5.00;3.30;;;;;;;;;;5091694;28;20997;-71
2022/03/19 10:53:47;;;;;;;6.27;4.27;;;;;;;;;;5091939;28;20420;-69
2022/03/19 10:56:13;;;;;;;5.40;3.73;;;;;;;;;;5091947;28;20398;-70
2022/03/19 10:58:39;;;;;;;3.97;3.10;;;;;;;;;;5091483;28;20433;-71
2022/03/19 11:01:07;;;;;;;5.37;3.40;;;;;;;;;;5091220;28;20426;-72
2022/03/19 11:03:35;;;;;;;4.93;3.70;;;;;;;;;;5091737;28;20901;-71
2022/03/19 11:06:05;;;;;;;4.20;3.13;;;;;;;;;;5091602;28;20467;-72
2022/03/19 11:08:37;;;;;;;8.27;4.40;;;;;;;;;;5091421;28;20401;-68
2022/03/19 11:11:08;;;;;;;6.77;4.37;;;;;;;;;;5091411;28;20470;-71
2022/03/19 11:13:37;;;;;;;8.77;3.90;;;;;;;;;;5075025;28;20571;-73
2022/03/19 11:16:04;;;;;;;7.30;4.00;;;;;;;;;;5091645;28;20975;-74
2022/03/19 11:18:30;;;;;;;6.83;4.13;;;;;;;;;;5091215;28;20410;-76
2022/03/19 11:20:56;;;;;;;11.20;4.87;;;;;;;;;;5091288;28;20437;-72
2022/03/19 11:23:28;;;;;;;13.07;4.43;;;;;;;;;;5091431;28;20417;-72
2022/03/19 11:25:55;;;;;;;13.53;4.50;;;;;;;;;;5091416;28;20454;-73
2022/03/19 11:28:21;;;;;;;31.57;9.07;;;;;;;;;;5091471;28;20410;-77
2022/03/19 11:30:59;;;;;;;24.50;8.00;;;;;;;;;;5091308;28;20430;-76
2022/03/19 11:33:27;;;;;;;19.30;11.57;;;;;;;;;;5091547;28;20402;-79
2022/03/19 11:36:00;;;;;;;18.23;10.80;;;;;;;;;;5094516;28;20455;-79
2022/03/19 11:38:27;;;;;;;24.63;12.50;;;;;;;;;;5094892;28;20770;-71
2022/03/19 11:40:58;;;;;;;30.43;13.97;;;;;;;;;;5095000;28;20891;-71
2022/03/19 11:43:27;;;;;;;20.10;13.30;;;;;;;;;;5095168;28;20413;-72
2022/03/19 11:46:11;;;;;;;23.30;13.70;;;;;;;;;;5095054;28;20458;-71
2022/03/19 11:48:54;;;;;;;23.60;12.73;;;;;;;;;;5094729;28;20435;-72
2022/03/19 11:51:27;;;;;;;21.00;12.77;;;;;;;;;;5094785;28;20425;-72
2022/03/19 11:53:54;;;;;;;22.67;13.03;;;;;;;;;;5094942;28;20402;-73
2022/03/19 11:56:20;;;;;;;18.80;12.37;;;;;;;;;;5094892;28;20438;-72
2022/03/19 11:58:47;;;;;;;21.50;13.60;;;;;;;;;;5094504;28;20459;-71
2022/03/19 12:01:13;;;;;;;20.30;12.30;;;;;;;;;;5094473;28;20533;-72
2022/03/19 12:04:00;;;;;;;18.70;12.53;;;;;;;;;;5094824;28;20438;-73
2022/03/19 12:06:30;;;;;;;22.70;12.00;;;;;;;;;;5077616;28;20944;-72
2022/03/19 12:08:56;;;;;;;18.03;10.73;;;;;;;;;;5094129;28;20925;-72
2022/03/19 12:11:22;;;;;;;22.37;10.90;;;;;;;;;;5094518;28;20520;-73
2022/03/19 12:13:50;;;;;;;16.73;11.40;;;;;;;;;;5094659;28;20409;-72
2022/03/19 12:16:35;;;;;;;14.70;10.17;;;;;;;;;;5094428;28;20410;-71
2022/03/19 12:19:01;;;;;;;16.17;10.17;;;;;;;;;;5093980;28;21062;-72
2022/03/19 12:21:27;;;;;;;19.60;10.17;;;;;;;;;;5095651;28;20418;-72
2022/03/19 12:23:56;;;;;;;14.20;10.10;;;;;;;;;;5094374;28;20459;-72
2022/03/19 12:26:24;;;;;;;15.70;10.30;;;;;;;;;;5094196;28;20503;-71
2022/03/19 12:29:00;;;;;;;15.80;9.83;;;;;;;;;;5093652;28;20453;-71
2022/03/19 12:31:33;;;;;;;18.30;10.00;;;;;;;;;;5094179;28;20429;-71
2022/03/19 12:34:00;;;;;;;21.83;9.20;;;;;;;;;;5094160;28;20462;-73
2022/03/19 12:36:26;;;;;;;15.63;9.10;;;;;;;;;;5093208;28;20417;-73
2022/03/19 12:38:53;;;;;;;17.80;9.07;;;;;;;;;;5092854;28;20487;-73
2022/03/19 12:41:31;;;;;;;15.53;8.50;;;;;;;;;;5094545;28;20661;-72
2022/03/19 12:44:02;;;;;;;15.40;7.73;;;;;;;;;;5093576;28;20910;-72
2022/03/19 12:46:33;;;;;;;15.50;8.37;;;;;;;;;;5092949;28;20457;-70
2022/03/19 12:49:07;;;;;;;14.70;8.17;;;;;;;;;;5092922;28;20414;-71
2022/03/19 12:51:34;;;;;;;14.40;7.80;;;;;;;;;;5093576;28;20842;-72
2022/03/19 12:54:00;;;;;;;12.37;7.40;;;;;;;;;;5093154;28;20476;-71
2022/03/19 12:56:27;;;;;;;14.00;8.23;;;;;;;;;;5093668;28;20428;-72
2022/03/19 12:58:55;;;;;;;14.90;8.07;;;;;;;;;;5092762;28;20459;-72
2022/03/19 13:01:22;;;;;;;16.90;8.83;;;;;;;;;;5090249;28;20981;-69
2022/03/19 13:03:52;;;;;;;18.63;8.53;;;;;;;;;;5089910;28;20475;-72
2022/03/19 13:06:27;;;;;;;14.97;8.20;;;;;;;;;;5090016;28;20461;-73
2022/03/19 13:08:53;;;;;;;12.67;8.47;;;;;;;;;;5091866;28;20487;-71
2022/03/19 13:11:19;;;;;;;13.87;7.47;;;;;;;;;;5093275;28;20779;-69
2022/03/19 13:13:47;;;;;;;16.30;8.63;;;;;;;;;;5093036;28;20410;-71
2022/03/19 13:16:25;;;;;;;14.50;8.50;;;;;;;;;;5089045;28;20438;-71
2022/03/19 13:18:56;;;;;;;13.80;8.90;;;;;;;;;;5086236;28;20429;-74
2022/03/19 13:21:22;;;;;;;12.87;8.37;;;;;;;;;;5091986;28;20953;-74
2022/03/19 13:23:49;;;;;;;12.67;8.27;;;;;;;;;;5093191;28;20916;-72
2022/03/19 13:26:17;;;;;;;13.97;6.97;;;;;;;;;;5093106;28;20988;-75
2022/03/19 13:28:59;;;;;;;12.77;7.60;;;;;;;;;;5092737;28;20414;-70
2022/03/19 13:31:25;;;;;;;12.83;7.30;;;;;;;;;;5092967;28;20457;-70
2022/03/19 13:33:51;;;;;;;12.17;6.83;;;;;;;;;;5092990;28;20409;-70
2022/03/19 13:36:18;;;;;;;12.73;7.30;;;;;;;;;;5092973;28;20498;-69
2022/03/19 13:38:45;;;;;;;14.93;6.63;;;;;;;;;;5092622;28;20417;-70
2022/03/19 13:41:18;;;;;;;16.53;7.40;;;;;;;;;;5092599;28;20447;-70
2022/03/19 13:43:44;;;;;;;9.77;6.20;;;;;;;;;;5092876;28;20501;-73
2022/03/19 13:46:11;;;;;;;12.33;6.50;;;;;;;;;;5092749;28;20795;-72
2022/03/19 13:48:37;;;;;;;9.83;5.90;;;;;;;;;;5092452;28;20449;-72
2022/03/19 13:51:03;;;;;;;15.63;7.40;;;;;;;;;;5092468;28;20476;-71
2022/03/19 13:53:42;;;;;;;12.50;6.67;;;;;;;;;;5092675;28;20467;-71
2022/03/19 13:56:09;;;;;;;14.97;6.60;;;;;;;;;;5092593;28;20445;-71
2022/03/19 13:58:35;;;;;;;11.73;7.00;;;;;;;;;;5092249;28;20421;-71
2022/03/19 14:01:11;;;;;;;11.93;7.07;;;;;;;;;;5092200;28;20790;-70
2022/03/19 14:03:40;;;;;;;9.73;5.70;;;;;;;;;;5092627;28;20417;-71
2022/03/19 14:06:06;;;;;;;10.90;6.17;;;;;;;;;;5092405;28;20468;-70
2022/03/19 14:08:33;;;;;;;11.80;6.60;;;;;;;;;;5092160;28;20467;-71
2022/03/19 14:10:59;;;;;;;11.20;6.03;;;;;;;;;;5092104;28;20436;-71
2022/03/19 14:13:38;;;;;;;11.00;6.47;;;;;;;;;;5092303;28;20406;-71
2022/03/19 14:16:12;;;;;;;13.83;6.17;;;;;;;;;;5092182;28;20421;-71
2022/03/19 14:18:40;;;;;;;10.53;5.33;;;;;;;;;;5091941;28;20440;-70
2022/03/19 14:21:08;;;;;;;10.93;5.93;;;;;;;;;;5091895;28;20507;-70
2022/03/19 14:23:45;;;;;;;12.67;5.60;;;;;;;;;;5092146;28;20417;-72
2022/03/19 14:26:13;;;;;;;11.87;6.07;;;;;;;;;;5092088;28;20461;-71
2022/03/19 14:28:43;;;;;;;8.97;5.17;;;;;;;;;;5091807;28;20437;-70
2022/03/19 14:31:10;;;;;;;10.83;5.40;;;;;;;;;;5091719;28;20422;-71
2022/03/19 14:33:36;;;;;;;10.27;5.23;;;;;;;;;;5092022;28;20410;-71
2022/03/19 14:36:03;;;;;;;8.53;4.70;;;;;;;;;;5091908;28;20418;-69
2022/03/19 14:38:31;;;;;;;10.33;4.80;;;;;;;;;;5091607;28;20802;-70
2022/03/19 14:40:59;;;;;;;9.87;5.20;;;;;;;;;;5091789;28;20429;-72
2022/03/19 14:43:25;;;;;;;7.87;4.37;;;;;;;;;;5091829;28;20572;-72
2022/03/19 14:45:53;;;;;;;10.30;5.20;;;;;;;;;;5091835;28;20449;-72